createdAt,value
2023-03-27T00:01:57.555Z,97.30
2023-03-27T00:06:16.759Z,96.40
2023-03-27T00:10:18.918Z,97.10
2023-03-27T00:14:21.772Z,97.30
2023-03-27T00:18:25.021Z,97.00
2023-03-27T00:22:26.881Z,97.20
2023-03-27T00:26:30.535Z,97.10
2023-03-27T00:30:33.633Z,97.30
2023-03-27T00:34:35.532Z,97.70
2023-03-27T00:38:39.545Z,98.20
2023-03-27T00:42:41.595Z,98.10
2023-03-27T00:46:45.173Z,98.00
2023-03-27T00:50:48.597Z,98.00
2023-03-27T00:54:50.907Z,97.70
2023-03-27T00:58:57.166Z,97.80
2023-03-27T01:03:01.170Z,98.20
2023-03-27T01:07:06.815Z,98.20
2023-03-27T01:11:33.489Z,97.90
2023-03-27T01:15:47.971Z,97.50
2023-03-27T01:20:27.332Z,98.20
2023-03-27T01:24:43.693Z,98.10
2023-03-27T01:28:49.219Z,98.00
2023-03-27T01:33:33.076Z,97.60
2023-03-27T01:38:05.977Z,97.80
2023-03-27T01:42:16.763Z,98.70
2023-03-27T01:46:22.186Z,98.50
2023-03-27T01:50:29.222Z,98.30
2023-03-27T01:54:32.911Z,97.80
2023-03-27T01:58:48.009Z,97.70
2023-03-27T02:03:07.686Z,98.00
2023-03-27T02:07:17.774Z,99.20
2023-03-27T02:11:30.475Z,99.90
2023-03-27T02:15:36.162Z,99.90
2023-03-27T02:19:48.019Z,99.90
2023-03-27T02:23:50.821Z,99.90
2023-03-27T02:28:02.040Z,99.90
2023-03-27T02:32:29.415Z,99.90
2023-03-27T02:37:03.804Z,99.90
2023-03-27T02:41:57.956Z,99.90
2023-03-27T02:46:28.933Z,99.90
2023-03-27T02:50:44.498Z,99.90
2023-03-27T02:54:53.566Z,99.90
2023-03-27T02:59:13.393Z,99.90
2023-03-27T03:03:32.154Z,99.90
2023-03-27T03:07:54.421Z,99.90
2023-03-27T03:11:59.876Z,99.90
2023-03-27T03:16:02.218Z,99.90
2023-03-27T03:20:09.636Z,99.90
2023-03-27T03:24:12.293Z,99.90
2023-03-27T03:28:18.023Z,99.90
2023-03-27T03:32:19.834Z,99.90
2023-03-27T03:36:24.768Z,99.90
2023-03-27T03:40:26.820Z,99.90
2023-03-27T03:44:34.547Z,99.90
2023-03-27T03:48:46.304Z,99.90
2023-03-27T03:52:48.333Z,99.90
2023-03-27T03:56:50.384Z,99.90
2023-03-27T04:00:54.605Z,99.90
2023-03-27T04:05:10.479Z,99.90
2023-03-27T04:09:13.620Z,99.90
2023-03-27T04:13:28.044Z,99.90
2023-03-27T04:17:35.896Z,99.90
2023-03-27T04:21:38.541Z,99.90
2023-03-27T04:25:41.227Z,99.90
2023-03-27T04:29:47.412Z,99.90
2023-03-27T04:34:09.485Z,99.90
2023-03-27T04:38:38.100Z,99.90
2023-03-27T04:42:42.510Z,99.90
2023-03-27T04:46:48.879Z,99.90
2023-03-27T04:50:51.383Z,99.90
2023-03-27T04:55:07.789Z,99.90
2023-03-27T04:59:10.019Z,99.90
2023-03-27T05:03:13.742Z,99.90
2023-03-27T05:07:36.368Z,99.90
2023-03-27T05:11:40.125Z,99.90
2023-03-27T05:15:44.051Z,99.90
2023-03-27T05:19:49.326Z,99.90
2023-03-27T05:23:51.659Z,99.90
2023-03-27T05:27:58.380Z,99.90
2023-03-27T05:32:04.520Z,99.90
2023-03-27T05:36:15.485Z,99.90
2023-03-27T05:40:22.764Z,99.90
2023-03-27T05:44:25.756Z,99.90
2023-03-27T05:48:27.846Z,99.90
2023-03-27T05:52:34.795Z,99.90
2023-03-27T05:56:38.150Z,99.90
2023-03-27T06:00:42.807Z,99.90
2023-03-27T06:04:47.949Z,99.90
2023-03-27T06:09:00.065Z,99.90
2023-03-27T06:13:06.425Z,99.90
2023-03-27T06:17:15.899Z,99.90
2023-03-27T06:21:24.041Z,99.90
2023-03-27T06:25:34.487Z,99.90
2023-03-27T06:29:37.445Z,99.90
2023-03-27T06:33:40.865Z,99.90
2023-03-27T06:37:53.262Z,99.90
2023-03-27T06:41:57.331Z,99.90
2023-03-27T06:46:17.960Z,99.90
2023-03-27T06:50:39.925Z,99.90
2023-03-27T06:54:41.961Z,99.90
2023-03-27T06:58:44.036Z,99.90
2023-03-27T07:03:09.860Z,99.90
2023-03-27T07:07:44.132Z,99.90
2023-03-27T07:11:46.588Z,99.90
2023-03-27T07:15:48.552Z,99.90
2023-03-27T07:19:50.696Z,99.90
2023-03-27T07:23:56.026Z,99.90
2023-03-27T07:28:12.384Z,99.90
2023-03-27T07:32:22.300Z,99.90
2023-03-27T07:36:31.983Z,99.90
2023-03-27T07:40:42.200Z,99.90
2023-03-27T07:45:04.514Z,99.90
2023-03-27T07:49:08.754Z,99.90
2023-03-27T07:53:33.218Z,99.90
2023-03-27T07:57:57.186Z,99.90
2023-03-27T08:02:02.945Z,99.90
2023-03-27T08:06:07.527Z,99.90
2023-03-27T08:10:11.397Z,99.90
2023-03-27T08:14:26.678Z,99.90
2023-03-27T08:18:31.452Z,99.80
2023-03-27T08:22:33.754Z,99.90
2023-03-27T08:27:05.236Z,99.90
2023-03-27T08:31:14.052Z,99.90
2023-03-27T08:35:18.652Z,99.90
2023-03-27T08:39:22.677Z,99.90
2023-03-27T08:43:42.467Z,99.90
2023-03-27T08:48:10.020Z,99.90
2023-03-27T08:52:16.419Z,99.90
2023-03-27T08:56:25.357Z,99.90
2023-03-27T09:00:36.002Z,99.90
2023-03-27T09:04:57.011Z,99.90
2023-03-27T09:09:04.897Z,99.60
2023-03-27T09:13:43.113Z,99.40
2023-03-27T09:18:09.344Z,98.20
2023-03-27T09:22:34.216Z,98.50
2023-03-27T09:27:11.673Z,97.30
2023-03-27T09:31:29.107Z,97.20
2023-03-27T09:35:35.252Z,96.00
2023-03-27T09:39:42.692Z,96.10
2023-03-27T09:44:03.694Z,96.90
2023-03-27T09:48:15.389Z,96.80
2023-03-27T09:52:37.742Z,96.20
2023-03-27T09:57:03.372Z,95.20
2023-03-27T10:01:31.086Z,95.70
2023-03-27T10:05:41.650Z,93.00
2023-03-27T10:09:43.657Z,94.80
2023-03-27T10:13:49.191Z,94.90
2023-03-27T10:17:54.952Z,94.20
2023-03-27T10:22:02.365Z,94.20
2023-03-27T10:26:09.473Z,93.20
2023-03-27T10:30:30.920Z,94.90
2023-03-27T10:35:22.536Z,93.70
2023-03-27T10:39:46.813Z,91.80
2023-03-27T10:43:57.725Z,91.50
2023-03-27T10:48:01.494Z,92.50
2023-03-27T10:52:11.908Z,93.10
2023-03-27T10:56:58.919Z,91.90
2023-03-27T11:01:05.179Z,91.60
2023-03-27T11:05:18.254Z,90.10
2023-03-27T11:09:36.398Z,90.70
2023-03-27T11:13:46.613Z,90.60
2023-03-27T11:17:48.990Z,91.30
2023-03-27T11:22:06.152Z,91.10
2023-03-27T11:26:15.753Z,90.40
2023-03-27T11:30:19.938Z,90.20
2023-03-27T11:34:48.038Z,89.30
2023-03-27T11:39:48.327Z,87.60
2023-03-27T11:43:51.102Z,88.70
2023-03-27T11:48:30.934Z,89.10
2023-03-27T11:52:58.529Z,85.70
2023-03-27T11:57:47.223Z,87.20
2023-03-27T12:02:34.508Z,85.00
2023-03-27T12:06:37.647Z,84.40
2023-03-27T12:10:42.550Z,83.70
2023-03-27T12:15:12.798Z,81.80
2023-03-27T12:19:47.653Z,82.90
2023-03-27T12:24:19.062Z,80.20
2023-03-27T12:28:54.225Z,87.80
2023-03-27T12:33:29.807Z,90.30
2023-03-27T12:37:47.622Z,90.40
2023-03-27T12:41:50.409Z,89.80
2023-03-27T12:46:24.770Z,92.10
2023-03-27T12:50:40.427Z,95.20
2023-03-27T12:55:18.347Z,95.30
2023-03-27T12:59:28.549Z,93.90
2023-03-27T13:03:43.045Z,93.30
2023-03-27T13:08:07.328Z,93.70
2023-03-27T13:13:00.094Z,92.30
2023-03-27T13:17:45.068Z,95.30
2023-03-27T13:22:08.795Z,96.90
2023-03-27T13:26:33.740Z,99.10
2023-03-27T13:30:50.356Z,97.80
2023-03-27T13:35:23.750Z,96.70
2023-03-27T13:39:40.436Z,94.00
2023-03-27T13:43:46.491Z,93.90
2023-03-27T13:48:28.800Z,95.30
2023-03-27T13:52:32.479Z,95.10
2023-03-27T13:56:53.072Z,95.90
2023-03-27T14:01:52.245Z,94.30
2023-03-27T14:05:58.409Z,92.90
2023-03-27T14:10:36.012Z,91.80
2023-03-27T14:14:48.239Z,88.70
2023-03-27T14:19:12.220Z,86.70
2023-03-27T14:23:26.394Z,86.00
2023-03-27T14:27:35.825Z,90.30
2023-03-27T14:31:39.170Z,89.80
2023-03-27T14:35:44.773Z,90.70
2023-03-27T14:39:57.237Z,90.70
2023-03-27T14:44:05.810Z,90.90
2023-03-27T14:48:19.404Z,90.40
2023-03-27T14:52:30.741Z,90.10
2023-03-27T14:57:02.157Z,90.00
2023-03-27T15:01:17.206Z,89.40
2023-03-27T15:05:24.692Z,88.40
2023-03-27T15:09:33.997Z,90.10
2023-03-27T15:14:12.748Z,90.00
2023-03-27T15:18:56.499Z,90.00
2023-03-27T15:23:23.926Z,88.40
2023-03-27T15:27:32.357Z,86.80
2023-03-27T15:31:35.865Z,89.20
2023-03-27T15:35:41.962Z,88.40
2023-03-27T15:40:33.977Z,88.70
2023-03-27T15:44:39.703Z,89.00
2023-03-27T15:48:49.203Z,89.50
2023-03-27T15:52:53.061Z,87.30
2023-03-27T15:57:09.979Z,88.10
2023-03-27T16:01:19.917Z,88.30
2023-03-27T16:05:23.500Z,89.00
2023-03-27T16:09:58.300Z,89.70
2023-03-27T16:14:00.527Z,88.90
2023-03-27T16:18:13.617Z,86.70
2023-03-27T16:22:26.408Z,87.10
2023-03-27T16:26:31.766Z,85.40
2023-03-27T16:30:39.061Z,85.40
2023-03-27T16:34:41.147Z,86.00
2023-03-27T16:38:43.888Z,87.80
2023-03-27T16:42:46.766Z,87.20
2023-03-27T16:46:48.857Z,88.10
2023-03-27T16:50:51.992Z,93.50
2023-03-27T16:54:54.249Z,97.80
2023-03-27T16:58:56.150Z,99.90
2023-03-27T17:02:58.275Z,99.90
2023-03-27T17:07:00.175Z,99.90
2023-03-27T17:11:11.808Z,99.90
2023-03-27T17:15:15.752Z,99.30
2023-03-27T17:19:18.543Z,98.80
2023-03-27T17:23:21.011Z,99.10
2023-03-27T17:27:24.014Z,98.60
2023-03-27T17:31:30.687Z,97.90
2023-03-27T17:35:32.874Z,97.40
2023-03-27T17:39:34.736Z,97.10
2023-03-27T17:43:36.668Z,96.80
2023-03-27T17:47:38.622Z,96.40
2023-03-27T17:51:41.028Z,96.70
2023-03-27T17:55:43.354Z,97.10
2023-03-27T17:59:46.493Z,97.20
2023-03-27T18:03:49.141Z,96.90
2023-03-27T18:07:51.295Z,96.40
2023-03-27T18:11:53.431Z,96.30
2023-03-27T18:15:58.003Z,95.70
2023-03-27T18:20:00.611Z,94.80
2023-03-27T18:24:02.799Z,95.40
2023-03-27T18:28:05.020Z,95.30
2023-03-27T18:32:06.966Z,95.20
2023-03-27T18:36:12.513Z,94.90
2023-03-27T18:40:16.676Z,94.70
2023-03-27T18:44:18.865Z,94.10
2023-03-27T18:48:20.938Z,94.00
2023-03-27T18:52:23.390Z,93.40
2023-03-27T18:56:25.624Z,92.80
2023-03-27T19:00:27.863Z,93.00
2023-03-27T19:04:30.011Z,93.00
2023-03-27T19:08:32.426Z,92.50
2023-03-27T19:12:36.761Z,93.00
2023-03-27T19:17:02.721Z,93.10
2023-03-27T19:21:10.937Z,93.70
2023-03-27T19:25:37.686Z,93.70
2023-03-27T19:29:39.586Z,94.20
2023-03-27T19:33:42.210Z,93.80
2023-03-27T19:37:44.153Z,93.90
2023-03-27T19:41:48.472Z,94.00
2023-03-27T19:46:04.346Z,93.80
2023-03-27T19:50:17.101Z,93.90
2023-03-27T19:54:38.035Z,93.90
2023-03-27T19:58:39.898Z,94.00
2023-03-27T20:02:42.023Z,94.00
2023-03-27T20:06:46.869Z,93.90
2023-03-27T20:10:49.587Z,93.80
2023-03-27T20:15:02.339Z,93.70
2023-03-27T20:19:15.887Z,93.60
2023-03-27T20:23:18.159Z,93.60
2023-03-27T20:27:20.277Z,93.50
2023-03-27T20:31:22.874Z,93.50
2023-03-27T20:35:28.902Z,96.80
2023-03-27T20:39:32.309Z,99.40
2023-03-27T20:43:40.405Z,98.90
2023-03-27T20:47:47.020Z,99.10
2023-03-27T20:51:51.165Z,98.50
2023-03-27T20:55:59.990Z,97.70
2023-03-27T21:00:07.527Z,98.00
2023-03-27T21:04:13.934Z,97.80
2023-03-27T21:08:16.289Z,97.50
2023-03-27T21:12:18.195Z,97.40
2023-03-27T21:16:20.295Z,97.10
2023-03-27T21:20:22.275Z,97.00
2023-03-27T21:24:24.329Z,97.00
2023-03-27T21:28:26.382Z,96.60
2023-03-27T21:32:28.395Z,96.80
2023-03-27T21:36:30.447Z,96.70
2023-03-27T21:40:32.436Z,96.70
2023-03-27T21:44:34.351Z,96.50
2023-03-27T21:48:36.525Z,96.30
2023-03-27T21:52:38.670Z,96.20
2023-03-27T21:56:41.103Z,96.00
2023-03-27T22:00:45.931Z,96.00
2023-03-27T22:04:47.900Z,95.90
2023-03-27T22:08:49.775Z,96.20
2023-03-27T22:12:51.914Z,96.10
2023-03-27T22:16:53.721Z,96.00
2023-03-27T22:20:55.915Z,96.00
2023-03-27T22:24:58.039Z,95.80
2023-03-27T22:29:00.030Z,95.60
2023-03-27T22:33:02.135Z,95.50
2023-03-27T22:37:04.195Z,95.40
2023-03-27T22:41:08.583Z,95.50
2023-03-27T22:45:11.127Z,95.10
2023-03-27T22:49:13.095Z,95.20
2023-03-27T22:53:15.308Z,95.30
2023-03-27T22:57:17.165Z,95.30
2023-03-27T23:01:19.090Z,95.10
2023-03-27T23:05:21.108Z,95.10
2023-03-27T23:09:23.117Z,95.40
2023-03-27T23:13:28.592Z,95.20
2023-03-27T23:17:30.516Z,94.70
2023-03-27T23:21:32.545Z,94.80
2023-03-27T23:25:34.474Z,94.70
2023-03-27T23:29:36.406Z,94.50
2023-03-27T23:33:43.674Z,94.50
2023-03-27T23:37:47.632Z,94.10
2023-03-27T23:41:49.549Z,94.20
2023-03-27T23:45:51.653Z,93.90
2023-03-27T23:49:53.648Z,93.60
2023-03-27T23:53:55.711Z,93.80
2023-03-27T23:57:57.628Z,93.60
